<?xml version="1.0" encoding="UTF-8"?>
<gpx version="1.1" creator="https://www.youtrack.es" xsi:schemaLocation="http://www.topografix.com/GPX/1/1 http://www.topografix.com/GPX/1/1/gpx.xsd http://www.garmin.com/xmlschemas/GpxExtensions/v3 http://www.garmin.com/xmlschemas/GpxExtensionsv3.xsd http://www.garmin.com/xmlschemas/TrackPointExtension/v1 http://www.garmin.com/xmlschemas/TrackPointExtensionv1.xsd" xmlns:gpxtpx="http://www.garmin.com/xmlschemas/TrackPointExtension/v1" xmlns:gpxx="http://www.garmin.com/xmlschemas/GpxExtensions/v3" xmlns:xsi="http://www.w3.org/2001/XMLSchema-instance">
  <metadata>
    <link href="https://www.youtrack.es">
      <text>YouTrack.es</text>
    </link>
    <time>2026-05-08T04:44:38Z</time>
  </metadata>
  <trk>
    <src>https://www.youtrack.es</src>
    <link href="https://www.youtrack.es/ruta/8740-20191005">
      <text>YouTrack.es</text>
    </link>
    <trkseg>
      <trkpt lat="40.200681" lon="-8.462242">
        <ele>60.0</ele>
        <time>2019-10-05T16:51:53Z</time>
      </trkpt>
      <trkpt lat="40.200681" lon="-8.462242">
        <ele>24.0</ele>
        <time>2019-10-05T16:55:29Z</time>
      </trkpt>
      <trkpt lat="40.200711" lon="-8.462043">
        <ele>42.0</ele>
        <time>2019-10-05T16:55:30Z</time>
      </trkpt>
      <trkpt lat="40.200784" lon="-8.462033">
        <ele>150.0</ele>
        <time>2019-10-05T16:55:32Z</time>
      </trkpt>
      <trkpt lat="40.200845" lon="-8.462004">
        <ele>150.0</ele>
        <time>2019-10-05T16:55:33Z</time>
      </trkpt>
      <trkpt lat="40.200845" lon="-8.462004">
        <ele>109.0</ele>
        <time>2019-10-05T16:58:23Z</time>
      </trkpt>
      <trkpt lat="40.199444" lon="-8.461621">
        <ele>149.0</ele>
        <time>2019-10-05T16:58:34Z</time>
      </trkpt>
      <trkpt lat="40.197669" lon="-8.461574">
        <ele>149.0</ele>
        <time>2019-10-05T16:59:35Z</time>
      </trkpt>
      <trkpt lat="40.197618" lon="-8.461551">
        <ele>156.0</ele>
        <time>2019-10-05T16:59:38Z</time>
      </trkpt>
      <trkpt lat="40.197598" lon="-8.461676">
        <ele>156.0</ele>
        <time>2019-10-05T16:59:42Z</time>
      </trkpt>
      <trkpt lat="40.197623" lon="-8.461748">
        <ele>153.0</ele>
        <time>2019-10-05T16:59:44Z</time>
      </trkpt>
      <trkpt lat="40.197505" lon="-8.461741">
        <ele>169.0</ele>
        <time>2019-10-05T16:59:46Z</time>
      </trkpt>
      <trkpt lat="40.197464" lon="-8.462082">
        <ele>167.0</ele>
        <time>2019-10-05T16:59:55Z</time>
      </trkpt>
      <trkpt lat="40.197351" lon="-8.46221">
        <ele>167.0</ele>
        <time>2019-10-05T16:59:59Z</time>
      </trkpt>
      <trkpt lat="40.197299" lon="-8.462278">
        <ele>182.0</ele>
        <time>2019-10-05T17:00:01Z</time>
      </trkpt>
      <trkpt lat="40.197092" lon="-8.461882">
        <ele>176.0</ele>
        <time>2019-10-05T17:00:11Z</time>
      </trkpt>
      <trkpt lat="40.19703" lon="-8.461803">
        <ele>176.0</ele>
        <time>2019-10-05T17:00:12Z</time>
      </trkpt>
      <trkpt lat="40.19705" lon="-8.461729">
        <ele>165.0</ele>
        <time>2019-10-05T17:00:18Z</time>
      </trkpt>
      <trkpt lat="40.196753" lon="-8.461639">
        <ele>160.0</ele>
        <time>2019-10-05T17:00:26Z</time>
      </trkpt>
      <trkpt lat="40.196601" lon="-8.461602">
        <ele>160.0</ele>
        <time>2019-10-05T17:00:29Z</time>
      </trkpt>
      <trkpt lat="40.196572" lon="-8.461597">
        <ele>153.0</ele>
        <time>2019-10-05T17:00:30Z</time>
      </trkpt>
      <trkpt lat="40.196493" lon="-8.46145">
        <ele>152.0</ele>
        <time>2019-10-05T17:00:33Z</time>
      </trkpt>
      <trkpt lat="40.196246" lon="-8.461326">
        <ele>154.0</ele>
        <time>2019-10-05T17:00:38Z</time>
      </trkpt>
      <trkpt lat="40.196164" lon="-8.46132">
        <ele>152.0</ele>
        <time>2019-10-05T17:00:45Z</time>
      </trkpt>
      <trkpt lat="40.196118" lon="-8.46129">
        <ele>156.0</ele>
        <time>2019-10-05T17:00:48Z</time>
      </trkpt>
      <trkpt lat="40.196039" lon="-8.461251">
        <ele>157.0</ele>
        <time>2019-10-05T17:00:52Z</time>
      </trkpt>
      <trkpt lat="40.195988" lon="-8.461249">
        <ele>158.0</ele>
        <time>2019-10-05T17:00:55Z</time>
      </trkpt>
      <trkpt lat="40.195914" lon="-8.461382">
        <ele>159.0</ele>
        <time>2019-10-05T17:01:00Z</time>
      </trkpt>
      <trkpt lat="40.19579" lon="-8.461274">
        <ele>158.0</ele>
        <time>2019-10-05T17:01:05Z</time>
      </trkpt>
      <trkpt lat="40.195638" lon="-8.461245">
        <ele>157.0</ele>
        <time>2019-10-05T17:01:09Z</time>
      </trkpt>
      <trkpt lat="40.19553" lon="-8.461167">
        <ele>160.0</ele>
        <time>2019-10-05T17:01:12Z</time>
      </trkpt>
      <trkpt lat="40.195368" lon="-8.46118">
        <ele>157.0</ele>
        <time>2019-10-05T17:01:16Z</time>
      </trkpt>
      <trkpt lat="40.195323" lon="-8.461142">
        <ele>154.0</ele>
        <time>2019-10-05T17:01:18Z</time>
      </trkpt>
      <trkpt lat="40.195251" lon="-8.461178">
        <ele>156.0</ele>
        <time>2019-10-05T17:01:24Z</time>
      </trkpt>
      <trkpt lat="40.195106" lon="-8.461109">
        <ele>159.0</ele>
        <time>2019-10-05T17:01:29Z</time>
      </trkpt>
      <trkpt lat="40.195035" lon="-8.461055">
        <ele>159.0</ele>
        <time>2019-10-05T17:01:32Z</time>
      </trkpt>
      <trkpt lat="40.195025" lon="-8.460986">
        <ele>159.0</ele>
        <time>2019-10-05T17:01:33Z</time>
      </trkpt>
      <trkpt lat="40.194977" lon="-8.460937">
        <ele>147.0</ele>
        <time>2019-10-05T17:01:36Z</time>
      </trkpt>
      <trkpt lat="40.194675" lon="-8.460495">
        <ele>144.0</ele>
        <time>2019-10-05T17:01:47Z</time>
      </trkpt>
      <trkpt lat="40.19463" lon="-8.460449">
        <ele>143.0</ele>
        <time>2019-10-05T17:01:49Z</time>
      </trkpt>
      <trkpt lat="40.194536" lon="-8.460338">
        <ele>146.0</ele>
        <time>2019-10-05T17:01:53Z</time>
      </trkpt>
      <trkpt lat="40.194472" lon="-8.460195">
        <ele>145.0</ele>
        <time>2019-10-05T17:01:54Z</time>
      </trkpt>
      <trkpt lat="40.194447" lon="-8.460142">
        <ele>145.0</ele>
        <time>2019-10-05T17:01:56Z</time>
      </trkpt>
      <trkpt lat="40.194447" lon="-8.460142">
        <ele>136.0</ele>
        <time>2019-10-05T17:02:01Z</time>
      </trkpt>
      <trkpt lat="40.194447" lon="-8.460142">
        <ele>139.0</ele>
        <time>2019-10-05T17:02:01Z</time>
      </trkpt>
      <trkpt lat="40.194447" lon="-8.460142">
        <ele>139.0</ele>
        <time>2019-10-05T17:02:04Z</time>
      </trkpt>
      <trkpt lat="40.194414" lon="-8.460021">
        <ele>139.0</ele>
        <time>2019-10-05T17:02:04Z</time>
      </trkpt>
      <trkpt lat="40.194202" lon="-8.459709">
        <ele>139.0</ele>
        <time>2019-10-05T17:02:15Z</time>
      </trkpt>
      <trkpt lat="40.194178" lon="-8.459669">
        <ele>139.0</ele>
        <time>2019-10-05T17:02:16Z</time>
      </trkpt>
      <trkpt lat="40.194156" lon="-8.459624">
        <ele>139.0</ele>
        <time>2019-10-05T17:02:17Z</time>
      </trkpt>
      <trkpt lat="40.194134" lon="-8.459582">
        <ele>139.0</ele>
        <time>2019-10-05T17:02:18Z</time>
      </trkpt>
      <trkpt lat="40.194054" lon="-8.4594">
        <ele>154.0</ele>
        <time>2019-10-05T17:02:21Z</time>
      </trkpt>
      <trkpt lat="40.194009" lon="-8.459309">
        <ele>142.0</ele>
        <time>2019-10-05T17:02:23Z</time>
      </trkpt>
      <trkpt lat="40.194009" lon="-8.459309">
        <ele>142.0</ele>
        <time>2019-10-05T17:02:28Z</time>
      </trkpt>
      <trkpt lat="40.194009" lon="-8.459309">
        <ele>133.0</ele>
        <time>2019-10-05T17:02:29Z</time>
      </trkpt>
      <trkpt lat="40.194009" lon="-8.459309">
        <ele>132.0</ele>
        <time>2019-10-05T17:03:22Z</time>
      </trkpt>
      <trkpt lat="40.193721" lon="-8.457671">
        <ele>132.0</ele>
        <time>2019-10-05T17:03:22Z</time>
      </trkpt>
      <trkpt lat="40.193813" lon="-8.457343">
        <ele>132.0</ele>
        <time>2019-10-05T17:03:27Z</time>
      </trkpt>
      <trkpt lat="40.193848" lon="-8.45728">
        <ele>132.0</ele>
        <time>2019-10-05T17:03:29Z</time>
      </trkpt>
      <trkpt lat="40.193913" lon="-8.457266">
        <ele>132.0</ele>
        <time>2019-10-05T17:03:33Z</time>
      </trkpt>
      <trkpt lat="40.193965" lon="-8.457185">
        <ele>131.0</ele>
        <time>2019-10-05T17:03:36Z</time>
      </trkpt>
      <trkpt lat="40.194039" lon="-8.457154">
        <ele>131.0</ele>
        <time>2019-10-05T17:03:38Z</time>
      </trkpt>
      <trkpt lat="40.1941" lon="-8.457147">
        <ele>132.0</ele>
        <time>2019-10-05T17:03:41Z</time>
      </trkpt>
      <trkpt lat="40.19415" lon="-8.457071">
        <ele>131.0</ele>
        <time>2019-10-05T17:03:43Z</time>
      </trkpt>
      <trkpt lat="40.194301" lon="-8.45704">
        <ele>133.0</ele>
        <time>2019-10-05T17:03:47Z</time>
      </trkpt>
      <trkpt lat="40.194313" lon="-8.456957">
        <ele>160.0</ele>
        <time>2019-10-05T17:03:49Z</time>
      </trkpt>
      <trkpt lat="40.194433" lon="-8.456819">
        <ele>161.0</ele>
        <time>2019-10-05T17:03:53Z</time>
      </trkpt>
      <trkpt lat="40.194378" lon="-8.456596">
        <ele>202.0</ele>
        <time>2019-10-05T17:03:55Z</time>
      </trkpt>
      <trkpt lat="40.19424" lon="-8.456444">
        <ele>164.0</ele>
        <time>2019-10-05T17:03:57Z</time>
      </trkpt>
      <trkpt lat="40.194377" lon="-8.45635">
        <ele>163.0</ele>
        <time>2019-10-05T17:04:00Z</time>
      </trkpt>
      <trkpt lat="40.194898" lon="-8.455909">
        <ele>164.0</ele>
        <time>2019-10-05T17:04:19Z</time>
      </trkpt>
      <trkpt lat="40.194927" lon="-8.455882">
        <ele>159.0</ele>
        <time>2019-10-05T17:04:20Z</time>
      </trkpt>
      <trkpt lat="40.196324" lon="-8.456249">
        <ele>164.0</ele>
        <time>2019-10-05T17:05:07Z</time>
      </trkpt>
      <trkpt lat="40.19625" lon="-8.456039">
        <ele>162.0</ele>
        <time>2019-10-05T17:05:12Z</time>
      </trkpt>
      <trkpt lat="40.196296" lon="-8.455917">
        <ele>169.0</ele>
        <time>2019-10-05T17:05:15Z</time>
      </trkpt>
      <trkpt lat="40.196385" lon="-8.455785">
        <ele>168.0</ele>
        <time>2019-10-05T17:05:18Z</time>
      </trkpt>
      <trkpt lat="40.196848" lon="-8.4538">
        <ele>168.0</ele>
        <time>2019-10-05T17:07:17Z</time>
      </trkpt>
      <trkpt lat="40.196701" lon="-8.453644">
        <ele>167.0</ele>
        <time>2019-10-05T17:07:21Z</time>
      </trkpt>
      <trkpt lat="40.196658" lon="-8.453615">
        <ele>168.0</ele>
        <time>2019-10-05T17:07:23Z</time>
      </trkpt>
      <trkpt lat="40.195836" lon="-8.453443">
        <ele>167.0</ele>
        <time>2019-10-05T17:08:12Z</time>
      </trkpt>
      <trkpt lat="40.19581" lon="-8.453379">
        <ele>166.0</ele>
        <time>2019-10-05T17:08:14Z</time>
      </trkpt>
      <trkpt lat="40.1958" lon="-8.453306">
        <ele>120.0</ele>
        <time>2019-10-05T17:08:16Z</time>
      </trkpt>
      <trkpt lat="40.195787" lon="-8.453227">
        <ele>120.0</ele>
        <time>2019-10-05T17:08:18Z</time>
      </trkpt>
      <trkpt lat="40.195793" lon="-8.453033">
        <ele>133.0</ele>
        <time>2019-10-05T17:08:21Z</time>
      </trkpt>
      <trkpt lat="40.195806" lon="-8.452899">
        <ele>135.0</ele>
        <time>2019-10-05T17:08:24Z</time>
      </trkpt>
      <trkpt lat="40.19575" lon="-8.452828">
        <ele>136.0</ele>
        <time>2019-10-05T17:08:26Z</time>
      </trkpt>
      <trkpt lat="40.195449" lon="-8.451134">
        <ele>137.0</ele>
        <time>2019-10-05T17:09:13Z</time>
      </trkpt>
      <trkpt lat="40.195449" lon="-8.451134">
        <ele>137.0</ele>
        <time>2019-10-05T17:09:19Z</time>
      </trkpt>
      <trkpt lat="40.195449" lon="-8.451134">
        <ele>137.0</ele>
        <time>2019-10-05T17:09:19Z</time>
      </trkpt>
      <trkpt lat="40.195449" lon="-8.451134">
        <ele>137.0</ele>
        <time>2019-10-05T17:09:58Z</time>
      </trkpt>
      <trkpt lat="40.195137" lon="-8.449858">
        <ele>136.0</ele>
        <time>2019-10-05T17:09:58Z</time>
      </trkpt>
      <trkpt lat="40.195163" lon="-8.449667">
        <ele>131.0</ele>
        <time>2019-10-05T17:10:02Z</time>
      </trkpt>
      <trkpt lat="40.195176" lon="-8.449603">
        <ele>139.0</ele>
        <time>2019-10-05T17:10:03Z</time>
      </trkpt>
      <trkpt lat="40.195187" lon="-8.449551">
        <ele>140.0</ele>
        <time>2019-10-05T17:10:04Z</time>
      </trkpt>
      <trkpt lat="40.195197" lon="-8.449443">
        <ele>140.0</ele>
        <time>2019-10-05T17:10:06Z</time>
      </trkpt>
      <trkpt lat="40.195205" lon="-8.449345">
        <ele>135.0</ele>
        <time>2019-10-05T17:10:08Z</time>
      </trkpt>
      <trkpt lat="40.195167" lon="-8.449158">
        <ele>140.0</ele>
        <time>2019-10-05T17:10:11Z</time>
      </trkpt>
      <trkpt lat="40.195179" lon="-8.449079">
        <ele>141.0</ele>
        <time>2019-10-05T17:10:13Z</time>
      </trkpt>
      <trkpt lat="40.195179" lon="-8.449079">
        <ele>141.0</ele>
        <time>2019-10-05T17:10:19Z</time>
      </trkpt>
      <trkpt lat="40.195179" lon="-8.449079">
        <ele>142.0</ele>
        <time>2019-10-05T17:10:23Z</time>
      </trkpt>
      <trkpt lat="40.195188" lon="-8.448862">
        <ele>141.0</ele>
        <time>2019-10-05T17:10:23Z</time>
      </trkpt>
      <trkpt lat="40.195276" lon="-8.448017">
        <ele>142.0</ele>
        <time>2019-10-05T17:10:49Z</time>
      </trkpt>
      <trkpt lat="40.195292" lon="-8.447957">
        <ele>138.0</ele>
        <time>2019-10-05T17:10:51Z</time>
      </trkpt>
      <trkpt lat="40.195292" lon="-8.447957">
        <ele>136.0</ele>
        <time>2019-10-05T17:10:56Z</time>
      </trkpt>
      <trkpt lat="40.195292" lon="-8.447957">
        <ele>135.0</ele>
        <time>2019-10-05T17:10:56Z</time>
      </trkpt>
      <trkpt lat="40.195292" lon="-8.447957">
        <ele>103.0</ele>
        <time>2019-10-05T17:11:17Z</time>
      </trkpt>
      <trkpt lat="40.195249" lon="-8.447219">
        <ele>130.0</ele>
        <time>2019-10-05T17:11:17Z</time>
      </trkpt>
      <trkpt lat="40.195305" lon="-8.447108">
        <ele>132.0</ele>
        <time>2019-10-05T17:11:20Z</time>
      </trkpt>
      <trkpt lat="40.195279" lon="-8.447052">
        <ele>143.0</ele>
        <time>2019-10-05T17:11:22Z</time>
      </trkpt>
      <trkpt lat="40.195291" lon="-8.446977">
        <ele>174.0</ele>
        <time>2019-10-05T17:11:25Z</time>
      </trkpt>
      <trkpt lat="40.195463" lon="-8.446929">
        <ele>170.0</ele>
        <time>2019-10-05T17:11:32Z</time>
      </trkpt>
      <trkpt lat="40.195611" lon="-8.446927">
        <ele>172.0</ele>
        <time>2019-10-05T17:11:36Z</time>
      </trkpt>
      <trkpt lat="40.195645" lon="-8.447012">
        <ele>170.0</ele>
        <time>2019-10-05T17:11:38Z</time>
      </trkpt>
      <trkpt lat="40.195645" lon="-8.447012">
        <ele>153.0</ele>
        <time>2019-10-05T17:11:44Z</time>
      </trkpt>
      <trkpt lat="40.195645" lon="-8.447012">
        <ele>154.0</ele>
        <time>2019-10-05T17:11:53Z</time>
      </trkpt>
      <trkpt lat="40.19571" lon="-8.44694">
        <ele>154.0</ele>
        <time>2019-10-05T17:11:53Z</time>
      </trkpt>
      <trkpt lat="40.195916" lon="-8.446683">
        <ele>155.0</ele>
        <time>2019-10-05T17:11:58Z</time>
      </trkpt>
      <trkpt lat="40.195971" lon="-8.446671">
        <ele>151.0</ele>
        <time>2019-10-05T17:12:01Z</time>
      </trkpt>
      <trkpt lat="40.196179" lon="-8.446575">
        <ele>148.0</ele>
        <time>2019-10-05T17:12:14Z</time>
      </trkpt>
      <trkpt lat="40.196394" lon="-8.446481">
        <ele>151.0</ele>
        <time>2019-10-05T17:12:26Z</time>
      </trkpt>
      <trkpt lat="40.196451" lon="-8.446452">
        <ele>153.0</ele>
        <time>2019-10-05T17:12:29Z</time>
      </trkpt>
      <trkpt lat="40.196472" lon="-8.446319">
        <ele>150.0</ele>
        <time>2019-10-05T17:12:34Z</time>
      </trkpt>
      <trkpt lat="40.196571" lon="-8.44578">
        <ele>151.0</ele>
        <time>2019-10-05T17:13:06Z</time>
      </trkpt>
      <trkpt lat="40.196645" lon="-8.445695">
        <ele>151.0</ele>
        <time>2019-10-05T17:13:10Z</time>
      </trkpt>
      <trkpt lat="40.196815" lon="-8.445675">
        <ele>149.0</ele>
        <time>2019-10-05T17:13:14Z</time>
      </trkpt>
      <trkpt lat="40.196867" lon="-8.445708">
        <ele>150.0</ele>
        <time>2019-10-05T17:13:16Z</time>
      </trkpt>
      <trkpt lat="40.197227" lon="-8.445649">
        <ele>147.0</ele>
        <time>2019-10-05T17:13:24Z</time>
      </trkpt>
      <trkpt lat="40.197257" lon="-8.445647">
        <ele>146.0</ele>
        <time>2019-10-05T17:13:26Z</time>
      </trkpt>
      <trkpt lat="40.197279" lon="-8.445591">
        <ele>148.0</ele>
        <time>2019-10-05T17:13:28Z</time>
      </trkpt>
      <trkpt lat="40.197289" lon="-8.445521">
        <ele>141.0</ele>
        <time>2019-10-05T17:13:32Z</time>
      </trkpt>
      <trkpt lat="40.197167" lon="-8.445334">
        <ele>141.0</ele>
        <time>2019-10-05T17:13:36Z</time>
      </trkpt>
      <trkpt lat="40.197306" lon="-8.445319">
        <ele>145.0</ele>
        <time>2019-10-05T17:13:42Z</time>
      </trkpt>
      <trkpt lat="40.197426" lon="-8.445327">
        <ele>143.0</ele>
        <time>2019-10-05T17:13:44Z</time>
      </trkpt>
      <trkpt lat="40.197501" lon="-8.44516">
        <ele>143.0</ele>
        <time>2019-10-05T17:13:46Z</time>
      </trkpt>
      <trkpt lat="40.197495" lon="-8.445047">
        <ele>143.0</ele>
        <time>2019-10-05T17:13:47Z</time>
      </trkpt>
      <trkpt lat="40.197536" lon="-8.444935">
        <ele>143.0</ele>
        <time>2019-10-05T17:13:50Z</time>
      </trkpt>
      <trkpt lat="40.197604" lon="-8.44485">
        <ele>144.0</ele>
        <time>2019-10-05T17:13:53Z</time>
      </trkpt>
      <trkpt lat="40.197629" lon="-8.444795">
        <ele>143.0</ele>
        <time>2019-10-05T17:13:56Z</time>
      </trkpt>
      <trkpt lat="40.197809" lon="-8.44469">
        <ele>125.0</ele>
        <time>2019-10-05T17:14:01Z</time>
      </trkpt>
      <trkpt lat="40.197712" lon="-8.444563">
        <ele>124.0</ele>
        <time>2019-10-05T17:14:02Z</time>
      </trkpt>
      <trkpt lat="40.197713" lon="-8.444478">
        <ele>124.0</ele>
        <time>2019-10-05T17:14:04Z</time>
      </trkpt>
      <trkpt lat="40.197695" lon="-8.444386">
        <ele>141.0</ele>
        <time>2019-10-05T17:14:06Z</time>
      </trkpt>
      <trkpt lat="40.198073" lon="-8.443729">
        <ele>143.0</ele>
        <time>2019-10-05T17:14:30Z</time>
      </trkpt>
      <trkpt lat="40.198073" lon="-8.443729">
        <ele>143.0</ele>
        <time>2019-10-05T17:14:36Z</time>
      </trkpt>
      <trkpt lat="40.198073" lon="-8.443729">
        <ele>144.0</ele>
        <time>2019-10-05T17:14:36Z</time>
      </trkpt>
      <trkpt lat="40.198073" lon="-8.443729">
        <ele>173.0</ele>
        <time>2019-10-05T17:14:45Z</time>
      </trkpt>
      <trkpt lat="40.198143" lon="-8.443448">
        <ele>172.0</ele>
        <time>2019-10-05T17:14:45Z</time>
      </trkpt>
      <trkpt lat="40.198327" lon="-8.443234">
        <ele>169.0</ele>
        <time>2019-10-05T17:14:54Z</time>
      </trkpt>
      <trkpt lat="40.198343" lon="-8.443152">
        <ele>170.0</ele>
        <time>2019-10-05T17:14:57Z</time>
      </trkpt>
      <trkpt lat="40.198368" lon="-8.443029">
        <ele>168.0</ele>
        <time>2019-10-05T17:15:00Z</time>
      </trkpt>
      <trkpt lat="40.198376" lon="-8.442979">
        <ele>168.0</ele>
        <time>2019-10-05T17:15:01Z</time>
      </trkpt>
      <trkpt lat="40.1984" lon="-8.442885">
        <ele>169.0</ele>
        <time>2019-10-05T17:15:03Z</time>
      </trkpt>
      <trkpt lat="40.198438" lon="-8.442837">
        <ele>171.0</ele>
        <time>2019-10-05T17:15:04Z</time>
      </trkpt>
      <trkpt lat="40.198755" lon="-8.442506">
        <ele>115.0</ele>
        <time>2019-10-05T17:15:32Z</time>
      </trkpt>
      <trkpt lat="40.198782" lon="-8.442451">
        <ele>131.0</ele>
        <time>2019-10-05T17:15:34Z</time>
      </trkpt>
      <trkpt lat="40.198815" lon="-8.442331">
        <ele>131.0</ele>
        <time>2019-10-05T17:15:39Z</time>
      </trkpt>
      <trkpt lat="40.199009" lon="-8.442013">
        <ele>181.0</ele>
        <time>2019-10-05T17:15:44Z</time>
      </trkpt>
      <trkpt lat="40.19911" lon="-8.441892">
        <ele>181.0</ele>
        <time>2019-10-05T17:15:47Z</time>
      </trkpt>
      <trkpt lat="40.199152" lon="-8.441821">
        <ele>181.0</ele>
        <time>2019-10-05T17:15:49Z</time>
      </trkpt>
      <trkpt lat="40.199202" lon="-8.441739">
        <ele>181.0</ele>
        <time>2019-10-05T17:15:51Z</time>
      </trkpt>
      <trkpt lat="40.199082" lon="-8.441571">
        <ele>181.0</ele>
        <time>2019-10-05T17:16:14Z</time>
      </trkpt>
      <trkpt lat="40.199052" lon="-8.441531">
        <ele>181.0</ele>
        <time>2019-10-05T17:16:16Z</time>
      </trkpt>
      <trkpt lat="40.198954" lon="-8.441262">
        <ele>181.0</ele>
        <time>2019-10-05T17:16:28Z</time>
      </trkpt>
      <trkpt lat="40.198962" lon="-8.441173">
        <ele>182.0</ele>
        <time>2019-10-05T17:16:32Z</time>
      </trkpt>
      <trkpt lat="40.199157" lon="-8.440779">
        <ele>181.0</ele>
        <time>2019-10-05T17:16:49Z</time>
      </trkpt>
      <trkpt lat="40.199235" lon="-8.440772">
        <ele>169.0</ele>
        <time>2019-10-05T17:16:51Z</time>
      </trkpt>
      <trkpt lat="40.199308" lon="-8.440697">
        <ele>168.0</ele>
        <time>2019-10-05T17:16:54Z</time>
      </trkpt>
      <trkpt lat="40.199365" lon="-8.440689">
        <ele>164.0</ele>
        <time>2019-10-05T17:16:56Z</time>
      </trkpt>
      <trkpt lat="40.201165" lon="-8.441048">
        <ele>163.0</ele>
        <time>2019-10-05T17:17:48Z</time>
      </trkpt>
      <trkpt lat="40.201211" lon="-8.441083">
        <ele>166.0</ele>
        <time>2019-10-05T17:17:52Z</time>
      </trkpt>
      <trkpt lat="40.201211" lon="-8.441083">
        <ele>161.0</ele>
        <time>2019-10-05T17:18:00Z</time>
      </trkpt>
      <trkpt lat="40.201211" lon="-8.441083">
        <ele>161.0</ele>
        <time>2019-10-05T17:18:00Z</time>
      </trkpt>
      <trkpt lat="40.201211" lon="-8.441083">
        <ele>160.0</ele>
        <time>2019-10-05T17:18:16Z</time>
      </trkpt>
      <trkpt lat="40.201396" lon="-8.441324">
        <ele>162.0</ele>
        <time>2019-10-05T17:18:16Z</time>
      </trkpt>
      <trkpt lat="40.201493" lon="-8.44142">
        <ele>164.0</ele>
        <time>2019-10-05T17:18:20Z</time>
      </trkpt>
      <trkpt lat="40.201544" lon="-8.441426">
        <ele>163.0</ele>
        <time>2019-10-05T17:18:22Z</time>
      </trkpt>
      <trkpt lat="40.201607" lon="-8.441425">
        <ele>164.0</ele>
        <time>2019-10-05T17:18:25Z</time>
      </trkpt>
      <trkpt lat="40.201675" lon="-8.441424">
        <ele>163.0</ele>
        <time>2019-10-05T17:18:26Z</time>
      </trkpt>
      <trkpt lat="40.201749" lon="-8.441435">
        <ele>167.0</ele>
        <time>2019-10-05T17:18:28Z</time>
      </trkpt>
      <trkpt lat="40.201817" lon="-8.441506">
        <ele>172.0</ele>
        <time>2019-10-05T17:18:29Z</time>
      </trkpt>
      <trkpt lat="40.201854" lon="-8.441573">
        <ele>171.0</ele>
        <time>2019-10-05T17:18:31Z</time>
      </trkpt>
      <trkpt lat="40.201883" lon="-8.441651">
        <ele>171.0</ele>
        <time>2019-10-05T17:18:33Z</time>
      </trkpt>
      <trkpt lat="40.202031" lon="-8.441796">
        <ele>169.0</ele>
        <time>2019-10-05T17:18:41Z</time>
      </trkpt>
      <trkpt lat="40.202063" lon="-8.441942">
        <ele>168.0</ele>
        <time>2019-10-05T17:18:45Z</time>
      </trkpt>
      <trkpt lat="40.202301" lon="-8.44204">
        <ele>161.0</ele>
        <time>2019-10-05T17:18:49Z</time>
      </trkpt>
      <trkpt lat="40.202324" lon="-8.44209">
        <ele>161.0</ele>
        <time>2019-10-05T17:18:51Z</time>
      </trkpt>
      <trkpt lat="40.202477" lon="-8.442067">
        <ele>161.0</ele>
        <time>2019-10-05T17:18:55Z</time>
      </trkpt>
      <trkpt lat="40.202518" lon="-8.442219">
        <ele>159.0</ele>
        <time>2019-10-05T17:18:59Z</time>
      </trkpt>
      <trkpt lat="40.20244" lon="-8.442448">
        <ele>158.0</ele>
        <time>2019-10-05T17:19:02Z</time>
      </trkpt>
      <trkpt lat="40.202418" lon="-8.442624">
        <ele>156.0</ele>
        <time>2019-10-05T17:19:07Z</time>
      </trkpt>
      <trkpt lat="40.202396" lon="-8.4427">
        <ele>162.0</ele>
        <time>2019-10-05T17:19:09Z</time>
      </trkpt>
      <trkpt lat="40.202441" lon="-8.4429">
        <ele>91.0</ele>
        <time>2019-10-05T17:19:10Z</time>
      </trkpt>
      <trkpt lat="40.202475" lon="-8.442953">
        <ele>152.0</ele>
        <time>2019-10-05T17:19:11Z</time>
      </trkpt>
      <trkpt lat="40.202438" lon="-8.443042">
        <ele>149.0</ele>
        <time>2019-10-05T17:19:14Z</time>
      </trkpt>
      <trkpt lat="40.202442" lon="-8.443131">
        <ele>148.0</ele>
        <time>2019-10-05T17:19:16Z</time>
      </trkpt>
      <trkpt lat="40.202463" lon="-8.443231">
        <ele>149.0</ele>
        <time>2019-10-05T17:19:18Z</time>
      </trkpt>
      <trkpt lat="40.20242" lon="-8.443688">
        <ele>148.0</ele>
        <time>2019-10-05T17:19:29Z</time>
      </trkpt>
      <trkpt lat="40.202416" lon="-8.443729">
        <ele>116.0</ele>
        <time>2019-10-05T17:19:30Z</time>
      </trkpt>
      <trkpt lat="40.202414" lon="-8.443777">
        <ele>117.0</ele>
        <time>2019-10-05T17:19:31Z</time>
      </trkpt>
      <trkpt lat="40.202478" lon="-8.444626">
        <ele>116.0</ele>
        <time>2019-10-05T17:19:51Z</time>
      </trkpt>
      <trkpt lat="40.202388" lon="-8.44466">
        <ele>116.0</ele>
        <time>2019-10-05T17:19:58Z</time>
      </trkpt>
      <trkpt lat="40.202521" lon="-8.445006">
        <ele>118.0</ele>
        <time>2019-10-05T17:20:07Z</time>
      </trkpt>
      <trkpt lat="40.202535" lon="-8.445036">
        <ele>119.0</ele>
        <time>2019-10-05T17:20:09Z</time>
      </trkpt>
      <trkpt lat="40.202553" lon="-8.445143">
        <ele>131.0</ele>
        <time>2019-10-05T17:20:11Z</time>
      </trkpt>
      <trkpt lat="40.202682" lon="-8.445085">
        <ele>127.0</ele>
        <time>2019-10-05T17:20:14Z</time>
      </trkpt>
      <trkpt lat="40.20272" lon="-8.445017">
        <ele>123.0</ele>
        <time>2019-10-05T17:20:16Z</time>
      </trkpt>
      <trkpt lat="40.202863" lon="-8.445015">
        <ele>127.0</ele>
        <time>2019-10-05T17:20:20Z</time>
      </trkpt>
      <trkpt lat="40.202958" lon="-8.445301">
        <ele>126.0</ele>
        <time>2019-10-05T17:20:30Z</time>
      </trkpt>
      <trkpt lat="40.202958" lon="-8.445301">
        <ele>124.0</ele>
        <time>2019-10-05T17:20:37Z</time>
      </trkpt>
      <trkpt lat="40.202958" lon="-8.445301">
        <ele>127.0</ele>
        <time>2019-10-05T17:22:14Z</time>
      </trkpt>
      <trkpt lat="40.203422" lon="-8.447251">
        <ele>126.0</ele>
        <time>2019-10-05T17:22:14Z</time>
      </trkpt>
      <trkpt lat="40.203101" lon="-8.448158">
        <ele>122.0</ele>
        <time>2019-10-05T17:23:06Z</time>
      </trkpt>
      <trkpt lat="40.203033" lon="-8.448237">
        <ele>123.0</ele>
        <time>2019-10-05T17:23:09Z</time>
      </trkpt>
      <trkpt lat="40.203063" lon="-8.448317">
        <ele>120.0</ele>
        <time>2019-10-05T17:23:12Z</time>
      </trkpt>
      <trkpt lat="40.203082" lon="-8.448364">
        <ele>116.0</ele>
        <time>2019-10-05T17:23:14Z</time>
      </trkpt>
      <trkpt lat="40.203008" lon="-8.448615">
        <ele>114.0</ele>
        <time>2019-10-05T17:23:30Z</time>
      </trkpt>
      <trkpt lat="40.202997" lon="-8.448987">
        <ele>111.0</ele>
        <time>2019-10-05T17:23:38Z</time>
      </trkpt>
      <trkpt lat="40.202994" lon="-8.449026">
        <ele>118.0</ele>
        <time>2019-10-05T17:23:39Z</time>
      </trkpt>
      <trkpt lat="40.202961" lon="-8.449083">
        <ele>117.0</ele>
        <time>2019-10-05T17:23:40Z</time>
      </trkpt>
      <trkpt lat="40.202966" lon="-8.449155">
        <ele>109.0</ele>
        <time>2019-10-05T17:23:42Z</time>
      </trkpt>
      <trkpt lat="40.202944" lon="-8.449222">
        <ele>108.0</ele>
        <time>2019-10-05T17:23:45Z</time>
      </trkpt>
      <trkpt lat="40.202919" lon="-8.449277">
        <time>2019-10-05T17:23:48Z</time>
      </trkpt>
      <trkpt lat="40.201691" lon="-8.448427">
        <time>2019-10-05T17:24:40Z</time>
      </trkpt>
      <trkpt lat="40.201548" lon="-8.448287">
        <time>2019-10-05T17:24:43Z</time>
      </trkpt>
      <trkpt lat="40.201601" lon="-8.448157">
        <time>2019-10-05T17:24:47Z</time>
      </trkpt>
      <trkpt lat="40.201741" lon="-8.448288">
        <time>2019-10-05T17:24:51Z</time>
      </trkpt>
      <trkpt lat="40.201677" lon="-8.448366">
        <time>2019-10-05T17:24:58Z</time>
      </trkpt>
      <trkpt lat="40.201641" lon="-8.448446">
        <time>2019-10-05T17:25:04Z</time>
      </trkpt>
      <trkpt lat="40.201078" lon="-8.448371">
        <time>2019-10-05T17:25:31Z</time>
      </trkpt>
      <trkpt lat="40.201003" lon="-8.448213">
        <time>2019-10-05T17:25:35Z</time>
      </trkpt>
      <trkpt lat="40.200892" lon="-8.448224">
        <time>2019-10-05T17:25:39Z</time>
      </trkpt>
      <trkpt lat="40.20081" lon="-8.448229">
        <time>2019-10-05T17:25:44Z</time>
      </trkpt>
      <trkpt lat="40.200775" lon="-8.448179">
        <time>2019-10-05T17:25:49Z</time>
      </trkpt>
      <trkpt lat="40.200719" lon="-8.448155">
        <time>2019-10-05T17:25:55Z</time>
      </trkpt>
      <trkpt lat="40.200589" lon="-8.448148">
        <time>2019-10-05T17:26:01Z</time>
      </trkpt>
      <trkpt lat="40.20052" lon="-8.448177">
        <time>2019-10-05T17:26:04Z</time>
      </trkpt>
      <trkpt lat="40.200555" lon="-8.448296">
        <time>2019-10-05T17:26:07Z</time>
      </trkpt>
      <trkpt lat="40.200449" lon="-8.448459">
        <time>2019-10-05T17:26:13Z</time>
      </trkpt>
      <trkpt lat="40.200641" lon="-8.448497">
        <time>2019-10-05T17:26:28Z</time>
      </trkpt>
      <trkpt lat="40.200709" lon="-8.448553">
        <time>2019-10-05T17:26:30Z</time>
      </trkpt>
      <trkpt lat="40.200709" lon="-8.448553">
        <time>2019-10-05T17:26:30Z</time>
      </trkpt>
      <trkpt lat="40.200099" lon="-8.447944">
        <ele>138.0</ele>
        <time>2019-10-05T17:29:16Z</time>
      </trkpt>
      <trkpt lat="40.200099" lon="-8.447944">
        <ele>143.0</ele>
        <time>2019-10-05T17:29:27Z</time>
      </trkpt>
      <trkpt lat="40.199082" lon="-8.447847">
        <ele>143.0</ele>
        <time>2019-10-05T17:30:12Z</time>
      </trkpt>
      <trkpt lat="40.198994" lon="-8.44793">
        <ele>144.0</ele>
        <time>2019-10-05T17:30:14Z</time>
      </trkpt>
      <trkpt lat="40.199419" lon="-8.448102">
        <ele>147.0</ele>
        <time>2019-10-05T17:30:20Z</time>
      </trkpt>
      <trkpt lat="40.199477" lon="-8.448109">
        <ele>149.0</ele>
        <time>2019-10-05T17:30:24Z</time>
      </trkpt>
      <trkpt lat="40.19966" lon="-8.448166">
        <ele>152.0</ele>
        <time>2019-10-05T17:30:28Z</time>
      </trkpt>
      <trkpt lat="40.200389" lon="-8.449679">
        <ele>149.0</ele>
        <time>2019-10-05T17:31:53Z</time>
      </trkpt>
      <trkpt lat="40.200305" lon="-8.449777">
        <ele>149.0</ele>
        <time>2019-10-05T17:31:58Z</time>
      </trkpt>
      <trkpt lat="40.200271" lon="-8.449852">
        <ele>149.0</ele>
        <time>2019-10-05T17:32:02Z</time>
      </trkpt>
      <trkpt lat="40.199875" lon="-8.449923">
        <ele>166.0</ele>
        <time>2019-10-05T17:32:11Z</time>
      </trkpt>
      <trkpt lat="40.200496" lon="-8.450818">
        <ele>166.0</ele>
        <time>2019-10-05T17:32:37Z</time>
      </trkpt>
      <trkpt lat="40.199763" lon="-8.451961">
        <ele>165.0</ele>
        <time>2019-10-05T17:33:12Z</time>
      </trkpt>
      <trkpt lat="40.199746" lon="-8.452017">
        <ele>165.0</ele>
        <time>2019-10-05T17:33:14Z</time>
      </trkpt>
      <trkpt lat="40.199665" lon="-8.452241">
        <ele>162.0</ele>
        <time>2019-10-05T17:33:19Z</time>
      </trkpt>
      <trkpt lat="40.199815" lon="-8.452333">
        <ele>166.0</ele>
        <time>2019-10-05T17:33:20Z</time>
      </trkpt>
      <trkpt lat="40.199839" lon="-8.452348">
        <ele>164.0</ele>
        <time>2019-10-05T17:33:22Z</time>
      </trkpt>
      <trkpt lat="40.199845" lon="-8.452422">
        <ele>158.0</ele>
        <time>2019-10-05T17:33:24Z</time>
      </trkpt>
      <trkpt lat="40.199322" lon="-8.453032">
        <ele>157.0</ele>
        <time>2019-10-05T17:33:43Z</time>
      </trkpt>
      <trkpt lat="40.199282" lon="-8.453072">
        <ele>157.0</ele>
        <time>2019-10-05T17:33:45Z</time>
      </trkpt>
      <trkpt lat="40.199259" lon="-8.453146">
        <ele>155.0</ele>
        <time>2019-10-05T17:33:46Z</time>
      </trkpt>
      <trkpt lat="40.199222" lon="-8.453208">
        <ele>158.0</ele>
        <time>2019-10-05T17:33:48Z</time>
      </trkpt>
      <trkpt lat="40.199216" lon="-8.453274">
        <ele>165.0</ele>
        <time>2019-10-05T17:33:50Z</time>
      </trkpt>
      <trkpt lat="40.199241" lon="-8.453325">
        <ele>103.0</ele>
        <time>2019-10-05T17:33:52Z</time>
      </trkpt>
      <trkpt lat="40.19933" lon="-8.454292">
        <ele>102.0</ele>
        <time>2019-10-05T17:34:23Z</time>
      </trkpt>
      <trkpt lat="40.199318" lon="-8.454365">
        <ele>100.0</ele>
        <time>2019-10-05T17:34:25Z</time>
      </trkpt>
      <trkpt lat="40.199307" lon="-8.454466">
        <ele>100.0</ele>
        <time>2019-10-05T17:34:27Z</time>
      </trkpt>
      <trkpt lat="40.199259" lon="-8.454595">
        <ele>102.0</ele>
        <time>2019-10-05T17:34:29Z</time>
      </trkpt>
      <trkpt lat="40.199304" lon="-8.454933">
        <ele>112.0</ele>
        <time>2019-10-05T17:34:33Z</time>
      </trkpt>
      <trkpt lat="40.199436" lon="-8.455626">
        <ele>114.0</ele>
        <time>2019-10-05T17:35:09Z</time>
      </trkpt>
      <trkpt lat="40.200642" lon="-8.455594">
        <ele>110.0</ele>
        <time>2019-10-05T17:35:51Z</time>
      </trkpt>
      <trkpt lat="40.200661" lon="-8.455531">
        <ele>109.0</ele>
        <time>2019-10-05T17:35:56Z</time>
      </trkpt>
      <trkpt lat="40.200706" lon="-8.455475">
        <ele>109.0</ele>
        <time>2019-10-05T17:35:59Z</time>
      </trkpt>
      <trkpt lat="40.200791" lon="-8.455495">
        <ele>105.0</ele>
        <time>2019-10-05T17:36:02Z</time>
      </trkpt>
      <trkpt lat="40.200861" lon="-8.455444">
        <ele>108.0</ele>
        <time>2019-10-05T17:36:05Z</time>
      </trkpt>
      <trkpt lat="40.200919" lon="-8.455471">
        <ele>110.0</ele>
        <time>2019-10-05T17:36:09Z</time>
      </trkpt>
      <trkpt lat="40.201012" lon="-8.455427">
        <ele>106.0</ele>
        <time>2019-10-05T17:36:13Z</time>
      </trkpt>
      <trkpt lat="40.20112" lon="-8.455507">
        <ele>106.0</ele>
        <time>2019-10-05T17:36:17Z</time>
      </trkpt>
      <trkpt lat="40.201164" lon="-8.455469">
        <ele>102.0</ele>
        <time>2019-10-05T17:36:21Z</time>
      </trkpt>
      <trkpt lat="40.201344" lon="-8.455335">
        <ele>97.0</ele>
        <time>2019-10-05T17:36:31Z</time>
      </trkpt>
      <trkpt lat="40.201429" lon="-8.455333">
        <ele>97.0</ele>
        <time>2019-10-05T17:36:32Z</time>
      </trkpt>
      <trkpt lat="40.201474" lon="-8.455316">
        <ele>95.0</ele>
        <time>2019-10-05T17:36:33Z</time>
      </trkpt>
      <trkpt lat="40.201533" lon="-8.455356">
        <ele>94.0</ele>
        <time>2019-10-05T17:36:34Z</time>
      </trkpt>
      <trkpt lat="40.201608" lon="-8.455369">
        <ele>95.0</ele>
        <time>2019-10-05T17:36:37Z</time>
      </trkpt>
      <trkpt lat="40.201679" lon="-8.455398">
        <ele>96.0</ele>
        <time>2019-10-05T17:36:40Z</time>
      </trkpt>
      <trkpt lat="40.201679" lon="-8.455398">
        <ele>100.0</ele>
        <time>2019-10-05T17:36:45Z</time>
      </trkpt>
      <trkpt lat="40.201706" lon="-8.455451">
        <ele>100.0</ele>
        <time>2019-10-05T17:36:54Z</time>
      </trkpt>
      <trkpt lat="40.20182" lon="-8.455471">
        <ele>99.0</ele>
        <time>2019-10-05T17:36:55Z</time>
      </trkpt>
      <trkpt lat="40.201847" lon="-8.455474">
        <ele>97.0</ele>
        <time>2019-10-05T17:36:56Z</time>
      </trkpt>
      <trkpt lat="40.201847" lon="-8.455474">
        <ele>98.0</ele>
        <time>2019-10-05T17:36:56Z</time>
      </trkpt>
      <trkpt lat="40.202497" lon="-8.455181">
        <ele>97.0</ele>
        <time>2019-10-05T17:37:41Z</time>
      </trkpt>
      <trkpt lat="40.202589" lon="-8.455245">
        <ele>97.0</ele>
        <time>2019-10-05T17:37:43Z</time>
      </trkpt>
      <trkpt lat="40.202663" lon="-8.455289">
        <ele>96.0</ele>
        <time>2019-10-05T17:37:46Z</time>
      </trkpt>
      <trkpt lat="40.202707" lon="-8.455272">
        <ele>96.0</ele>
        <time>2019-10-05T17:37:48Z</time>
      </trkpt>
      <trkpt lat="40.202809" lon="-8.455254">
        <ele>96.0</ele>
        <time>2019-10-05T17:37:52Z</time>
      </trkpt>
      <trkpt lat="40.202699" lon="-8.454583">
        <ele>99.0</ele>
        <time>2019-10-05T17:38:06Z</time>
      </trkpt>
      <trkpt lat="40.202627" lon="-8.454484">
        <ele>91.0</ele>
        <time>2019-10-05T17:38:07Z</time>
      </trkpt>
      <trkpt lat="40.202627" lon="-8.454484">
        <ele>93.0</ele>
        <time>2019-10-05T17:41:39Z</time>
      </trkpt>
      <trkpt lat="40.207114" lon="-8.454344">
        <ele>91.0</ele>
        <time>2019-10-05T17:41:40Z</time>
      </trkpt>
      <trkpt lat="40.207494" lon="-8.454389">
        <ele>89.0</ele>
        <time>2019-10-05T17:41:54Z</time>
      </trkpt>
      <trkpt lat="40.207633" lon="-8.454263">
        <ele>90.0</ele>
        <time>2019-10-05T17:41:58Z</time>
      </trkpt>
      <trkpt lat="40.207773" lon="-8.454225">
        <ele>88.0</ele>
        <time>2019-10-05T17:42:01Z</time>
      </trkpt>
      <trkpt lat="40.207839" lon="-8.454113">
        <ele>91.0</ele>
        <time>2019-10-05T17:42:05Z</time>
      </trkpt>
      <trkpt lat="40.207864" lon="-8.454067">
        <ele>90.0</ele>
        <time>2019-10-05T17:42:07Z</time>
      </trkpt>
      <trkpt lat="40.207905" lon="-8.454029">
        <ele>94.0</ele>
        <time>2019-10-05T17:42:11Z</time>
      </trkpt>
      <trkpt lat="40.207953" lon="-8.453971">
        <ele>95.0</ele>
        <time>2019-10-05T17:42:13Z</time>
      </trkpt>
      <trkpt lat="40.207985" lon="-8.453923">
        <ele>95.0</ele>
        <time>2019-10-05T17:42:16Z</time>
      </trkpt>
      <trkpt lat="40.208076" lon="-8.45392">
        <ele>98.0</ele>
        <time>2019-10-05T17:42:20Z</time>
      </trkpt>
      <trkpt lat="40.208265" lon="-8.453996">
        <ele>97.0</ele>
        <time>2019-10-05T17:42:23Z</time>
      </trkpt>
      <trkpt lat="40.208341" lon="-8.454067">
        <ele>100.0</ele>
        <time>2019-10-05T17:42:25Z</time>
      </trkpt>
      <trkpt lat="40.208345" lon="-8.454135">
        <ele>104.0</ele>
        <time>2019-10-05T17:42:33Z</time>
      </trkpt>
      <trkpt lat="40.208392" lon="-8.454168">
        <ele>107.0</ele>
        <time>2019-10-05T17:42:35Z</time>
      </trkpt>
      <trkpt lat="40.208472" lon="-8.454223">
        <ele>108.0</ele>
        <time>2019-10-05T17:42:38Z</time>
      </trkpt>
      <trkpt lat="40.208554" lon="-8.454203">
        <ele>112.0</ele>
        <time>2019-10-05T17:42:40Z</time>
      </trkpt>
      <trkpt lat="40.208662" lon="-8.454222">
        <ele>119.0</ele>
        <time>2019-10-05T17:42:45Z</time>
      </trkpt>
      <trkpt lat="40.208869" lon="-8.454269">
        <ele>124.0</ele>
        <time>2019-10-05T17:42:47Z</time>
      </trkpt>
      <trkpt lat="40.208988" lon="-8.45426">
        <ele>124.0</ele>
        <time>2019-10-05T17:42:52Z</time>
      </trkpt>
      <trkpt lat="40.209144" lon="-8.454293">
        <ele>124.0</ele>
        <time>2019-10-05T17:42:56Z</time>
      </trkpt>
      <trkpt lat="40.209288" lon="-8.454097">
        <ele>124.0</ele>
        <time>2019-10-05T17:43:16Z</time>
      </trkpt>
      <trkpt lat="40.209352" lon="-8.454089">
        <ele>124.0</ele>
        <time>2019-10-05T17:43:19Z</time>
      </trkpt>
      <trkpt lat="40.209375" lon="-8.454086">
        <ele>124.0</ele>
        <time>2019-10-05T17:43:20Z</time>
      </trkpt>
      <trkpt lat="40.209439" lon="-8.454067">
        <ele>124.0</ele>
        <time>2019-10-05T17:43:21Z</time>
      </trkpt>
      <trkpt lat="40.209483" lon="-8.454058">
        <ele>122.0</ele>
        <time>2019-10-05T17:43:22Z</time>
      </trkpt>
      <trkpt lat="40.209524" lon="-8.454051">
        <ele>122.0</ele>
        <time>2019-10-05T17:43:23Z</time>
      </trkpt>
      <trkpt lat="40.209572" lon="-8.454054">
        <ele>117.0</ele>
        <time>2019-10-05T17:43:24Z</time>
      </trkpt>
      <trkpt lat="40.209697" lon="-8.453991">
        <ele>112.0</ele>
        <time>2019-10-05T17:43:28Z</time>
      </trkpt>
      <trkpt lat="40.209697" lon="-8.453991">
        <ele>111.0</ele>
        <time>2019-10-05T17:43:34Z</time>
      </trkpt>
      <trkpt lat="40.209697" lon="-8.453991">
        <ele>115.0</ele>
        <time>2019-10-05T17:43:34Z</time>
      </trkpt>
      <trkpt lat="40.209805" lon="-8.454018">
        <ele>113.0</ele>
        <time>2019-10-05T17:43:46Z</time>
      </trkpt>
      <trkpt lat="40.209931" lon="-8.45407">
        <ele>117.0</ele>
        <time>2019-10-05T17:43:50Z</time>
      </trkpt>
      <trkpt lat="40.209972" lon="-8.454112">
        <ele>124.0</ele>
        <time>2019-10-05T17:43:51Z</time>
      </trkpt>
      <trkpt lat="40.209972" lon="-8.454112">
        <ele>130.0</ele>
        <time>2019-10-05T17:43:52Z</time>
      </trkpt>
      <trkpt lat="40.210456" lon="-8.454033">
        <ele>128.0</ele>
        <time>2019-10-05T17:44:20Z</time>
      </trkpt>
      <trkpt lat="40.210494" lon="-8.454096">
        <ele>129.0</ele>
        <time>2019-10-05T17:44:25Z</time>
      </trkpt>
      <trkpt lat="40.210659" lon="-8.454231">
        <ele>119.0</ele>
        <time>2019-10-05T17:44:36Z</time>
      </trkpt>
      <trkpt lat="40.210635" lon="-8.455003">
        <ele>114.0</ele>
        <time>2019-10-05T17:44:59Z</time>
      </trkpt>
      <trkpt lat="40.210646" lon="-8.4551">
        <ele>115.0</ele>
        <time>2019-10-05T17:45:02Z</time>
      </trkpt>
      <trkpt lat="40.210801" lon="-8.455173">
        <ele>118.0</ele>
        <time>2019-10-05T17:45:08Z</time>
      </trkpt>
      <trkpt lat="40.210836" lon="-8.45522">
        <ele>128.0</ele>
        <time>2019-10-05T17:45:11Z</time>
      </trkpt>
      <trkpt lat="40.210886" lon="-8.455771">
        <ele>129.0</ele>
        <time>2019-10-05T17:45:24Z</time>
      </trkpt>
      <trkpt lat="40.210923" lon="-8.455874">
        <ele>128.0</ele>
        <time>2019-10-05T17:45:27Z</time>
      </trkpt>
      <trkpt lat="40.210937" lon="-8.455912">
        <ele>135.0</ele>
        <time>2019-10-05T17:45:28Z</time>
      </trkpt>
      <trkpt lat="40.210983" lon="-8.455979">
        <ele>135.0</ele>
        <time>2019-10-05T17:45:30Z</time>
      </trkpt>
      <trkpt lat="40.210818" lon="-8.456385">
        <ele>182.0</ele>
        <time>2019-10-05T17:45:47Z</time>
      </trkpt>
      <trkpt lat="40.210839" lon="-8.456466">
        <ele>180.0</ele>
        <time>2019-10-05T17:45:50Z</time>
      </trkpt>
      <trkpt lat="40.21085" lon="-8.456498">
        <ele>147.0</ele>
        <time>2019-10-05T17:45:51Z</time>
      </trkpt>
      <trkpt lat="40.211026" lon="-8.456863">
        <ele>148.0</ele>
        <time>2019-10-05T17:46:02Z</time>
      </trkpt>
      <trkpt lat="40.211064" lon="-8.456898">
        <ele>148.0</ele>
        <time>2019-10-05T17:46:04Z</time>
      </trkpt>
      <trkpt lat="40.211128" lon="-8.458027">
        <ele>151.0</ele>
        <time>2019-10-05T17:46:48Z</time>
      </trkpt>
      <trkpt lat="40.211109" lon="-8.458134">
        <ele>151.0</ele>
        <time>2019-10-05T17:46:50Z</time>
      </trkpt>
      <trkpt lat="40.211291" lon="-8.458031">
        <ele>156.0</ele>
        <time>2019-10-05T17:46:55Z</time>
      </trkpt>
      <trkpt lat="40.211648" lon="-8.458181">
        <ele>139.0</ele>
        <time>2019-10-05T17:46:59Z</time>
      </trkpt>
      <trkpt lat="40.211707" lon="-8.45825">
        <ele>138.0</ele>
        <time>2019-10-05T17:47:01Z</time>
      </trkpt>
      <trkpt lat="40.211819" lon="-8.458298">
        <ele>139.0</ele>
        <time>2019-10-05T17:47:04Z</time>
      </trkpt>
      <trkpt lat="40.211205" lon="-8.458276">
        <ele>119.0</ele>
        <time>2019-10-05T17:47:17Z</time>
      </trkpt>
      <trkpt lat="40.211197" lon="-8.458382">
        <ele>118.0</ele>
        <time>2019-10-05T17:47:20Z</time>
      </trkpt>
      <trkpt lat="40.210855" lon="-8.458588">
        <ele>118.0</ele>
        <time>2019-10-05T17:47:26Z</time>
      </trkpt>
      <trkpt lat="40.210855" lon="-8.458654">
        <ele>118.0</ele>
        <time>2019-10-05T17:47:29Z</time>
      </trkpt>
      <trkpt lat="40.210856" lon="-8.458715">
        <ele>121.0</ele>
        <time>2019-10-05T17:47:31Z</time>
      </trkpt>
      <trkpt lat="40.210074" lon="-8.459236">
        <ele>123.0</ele>
        <time>2019-10-05T17:47:51Z</time>
      </trkpt>
      <trkpt lat="40.21001" lon="-8.459306">
        <ele>122.0</ele>
        <time>2019-10-05T17:47:54Z</time>
      </trkpt>
      <trkpt lat="40.210003" lon="-8.459399">
        <ele>122.0</ele>
        <time>2019-10-05T17:47:56Z</time>
      </trkpt>
      <trkpt lat="40.210004" lon="-8.459473">
        <ele>122.0</ele>
        <time>2019-10-05T17:47:59Z</time>
      </trkpt>
      <trkpt lat="40.20995" lon="-8.459617">
        <ele>121.0</ele>
        <time>2019-10-05T17:48:03Z</time>
      </trkpt>
      <trkpt lat="40.209854" lon="-8.459801">
        <ele>115.0</ele>
        <time>2019-10-05T17:48:13Z</time>
      </trkpt>
      <trkpt lat="40.20978" lon="-8.459856">
        <ele>118.0</ele>
        <time>2019-10-05T17:48:16Z</time>
      </trkpt>
      <trkpt lat="40.209728" lon="-8.459903">
        <ele>114.0</ele>
        <time>2019-10-05T17:48:17Z</time>
      </trkpt>
      <trkpt lat="40.209673" lon="-8.45996">
        <ele>115.0</ele>
        <time>2019-10-05T17:48:19Z</time>
      </trkpt>
      <trkpt lat="40.209917" lon="-8.46017">
        <ele>119.0</ele>
        <time>2019-10-05T17:48:24Z</time>
      </trkpt>
      <trkpt lat="40.210027" lon="-8.46032">
        <ele>120.0</ele>
        <time>2019-10-05T17:48:33Z</time>
      </trkpt>
      <trkpt lat="40.210139" lon="-8.460467">
        <ele>120.0</ele>
        <time>2019-10-05T17:48:37Z</time>
      </trkpt>
      <trkpt lat="40.210281" lon="-8.460613">
        <ele>119.0</ele>
        <time>2019-10-05T17:48:44Z</time>
      </trkpt>
      <trkpt lat="40.210329" lon="-8.460624">
        <ele>121.0</ele>
        <time>2019-10-05T17:48:46Z</time>
      </trkpt>
      <trkpt lat="40.210464" lon="-8.460658">
        <ele>122.0</ele>
        <time>2019-10-05T17:48:51Z</time>
      </trkpt>
      <trkpt lat="40.210503" lon="-8.460708">
        <ele>120.0</ele>
        <time>2019-10-05T17:48:55Z</time>
      </trkpt>
      <trkpt lat="40.210479" lon="-8.460786">
        <ele>118.0</ele>
        <time>2019-10-05T17:48:57Z</time>
      </trkpt>
      <trkpt lat="40.210453" lon="-8.460839">
        <ele>117.0</ele>
        <time>2019-10-05T17:49:02Z</time>
      </trkpt>
      <trkpt lat="40.210488" lon="-8.460939">
        <ele>113.0</ele>
        <time>2019-10-05T17:49:07Z</time>
      </trkpt>
      <trkpt lat="40.210504" lon="-8.461">
        <ele>115.0</ele>
        <time>2019-10-05T17:49:09Z</time>
      </trkpt>
      <trkpt lat="40.210494" lon="-8.461126">
        <ele>119.0</ele>
        <time>2019-10-05T17:49:12Z</time>
      </trkpt>
      <trkpt lat="40.210479" lon="-8.461243">
        <ele>94.0</ele>
        <time>2019-10-05T17:49:15Z</time>
      </trkpt>
      <trkpt lat="40.210501" lon="-8.461322">
        <ele>98.0</ele>
        <time>2019-10-05T17:49:18Z</time>
      </trkpt>
      <trkpt lat="40.210646" lon="-8.461658">
        <ele>104.0</ele>
        <time>2019-10-05T17:49:25Z</time>
      </trkpt>
      <trkpt lat="40.210661" lon="-8.461754">
        <ele>107.0</ele>
        <time>2019-10-05T17:49:27Z</time>
      </trkpt>
      <trkpt lat="40.210636" lon="-8.461832">
        <ele>109.0</ele>
        <time>2019-10-05T17:49:29Z</time>
      </trkpt>
      <trkpt lat="40.210573" lon="-8.461982">
        <ele>110.0</ele>
        <time>2019-10-05T17:49:34Z</time>
      </trkpt>
      <trkpt lat="40.210563" lon="-8.462097">
        <ele>110.0</ele>
        <time>2019-10-05T17:49:37Z</time>
      </trkpt>
      <trkpt lat="40.210222" lon="-8.462178">
        <ele>108.0</ele>
        <time>2019-10-05T17:49:41Z</time>
      </trkpt>
      <trkpt lat="40.210164" lon="-8.462306">
        <ele>109.0</ele>
        <time>2019-10-05T17:49:43Z</time>
      </trkpt>
      <trkpt lat="40.21016" lon="-8.462373">
        <ele>109.0</ele>
        <time>2019-10-05T17:49:45Z</time>
      </trkpt>
      <trkpt lat="40.210156" lon="-8.462447">
        <ele>110.0</ele>
        <time>2019-10-05T17:49:46Z</time>
      </trkpt>
      <trkpt lat="40.210138" lon="-8.462559">
        <ele>110.0</ele>
        <time>2019-10-05T17:49:48Z</time>
      </trkpt>
      <trkpt lat="40.210144" lon="-8.463145">
        <ele>98.0</ele>
        <time>2019-10-05T17:50:05Z</time>
      </trkpt>
      <trkpt lat="40.210115" lon="-8.463211">
        <ele>102.0</ele>
        <time>2019-10-05T17:50:08Z</time>
      </trkpt>
      <trkpt lat="40.210081" lon="-8.463271">
        <ele>93.0</ele>
        <time>2019-10-05T17:50:11Z</time>
      </trkpt>
      <trkpt lat="40.210059" lon="-8.463334">
        <ele>89.0</ele>
        <time>2019-10-05T17:50:13Z</time>
      </trkpt>
      <trkpt lat="40.21004" lon="-8.463405">
        <ele>98.0</ele>
        <time>2019-10-05T17:50:15Z</time>
      </trkpt>
      <trkpt lat="40.209925" lon="-8.463719">
        <ele>104.0</ele>
        <time>2019-10-05T17:50:22Z</time>
      </trkpt>
      <trkpt lat="40.2099" lon="-8.463788">
        <ele>103.0</ele>
        <time>2019-10-05T17:50:23Z</time>
      </trkpt>
      <trkpt lat="40.209882" lon="-8.463947">
        <ele>103.0</ele>
        <time>2019-10-05T17:50:28Z</time>
      </trkpt>
      <trkpt lat="40.209796" lon="-8.463974">
        <ele>102.0</ele>
        <time>2019-10-05T17:50:34Z</time>
      </trkpt>
      <trkpt lat="40.209692" lon="-8.464122">
        <ele>101.0</ele>
        <time>2019-10-05T17:50:38Z</time>
      </trkpt>
      <trkpt lat="40.209578" lon="-8.464307">
        <ele>102.0</ele>
        <time>2019-10-05T17:50:43Z</time>
      </trkpt>
      <trkpt lat="40.209544" lon="-8.464386">
        <ele>100.0</ele>
        <time>2019-10-05T17:50:46Z</time>
      </trkpt>
      <trkpt lat="40.209531" lon="-8.464424">
        <ele>100.0</ele>
        <time>2019-10-05T17:50:47Z</time>
      </trkpt>
      <trkpt lat="40.209481" lon="-8.464479">
        <ele>92.0</ele>
        <time>2019-10-05T17:50:50Z</time>
      </trkpt>
      <trkpt lat="40.209467" lon="-8.464546">
        <ele>71.0</ele>
        <time>2019-10-05T17:50:51Z</time>
      </trkpt>
      <trkpt lat="40.209452" lon="-8.464626">
        <ele>72.0</ele>
        <time>2019-10-05T17:50:53Z</time>
      </trkpt>
      <trkpt lat="40.209397" lon="-8.464725">
        <ele>71.0</ele>
        <time>2019-10-05T17:50:57Z</time>
      </trkpt>
      <trkpt lat="40.209397" lon="-8.464789">
        <ele>66.0</ele>
        <time>2019-10-05T17:51:01Z</time>
      </trkpt>
      <trkpt lat="40.208827" lon="-8.465331">
        <ele>78.0</ele>
        <time>2019-10-05T17:51:37Z</time>
      </trkpt>
      <trkpt lat="40.20882" lon="-8.46539">
        <ele>82.0</ele>
        <time>2019-10-05T17:51:42Z</time>
      </trkpt>
      <trkpt lat="40.208805" lon="-8.46545">
        <ele>80.0</ele>
        <time>2019-10-05T17:51:45Z</time>
      </trkpt>
      <trkpt lat="40.208753" lon="-8.465468">
        <ele>82.0</ele>
        <time>2019-10-05T17:51:51Z</time>
      </trkpt>
      <trkpt lat="40.208736" lon="-8.465536">
        <ele>80.0</ele>
        <time>2019-10-05T17:51:55Z</time>
      </trkpt>
      <trkpt lat="40.208677" lon="-8.46571">
        <ele>75.0</ele>
        <time>2019-10-05T17:52:00Z</time>
      </trkpt>
      <trkpt lat="40.208628" lon="-8.465711">
        <ele>78.0</ele>
        <time>2019-10-05T17:52:05Z</time>
      </trkpt>
      <trkpt lat="40.208553" lon="-8.465765">
        <ele>76.0</ele>
        <time>2019-10-05T17:52:07Z</time>
      </trkpt>
      <trkpt lat="40.208518" lon="-8.465793">
        <ele>79.0</ele>
        <time>2019-10-05T17:52:09Z</time>
      </trkpt>
      <trkpt lat="40.208472" lon="-8.465838">
        <ele>84.0</ele>
        <time>2019-10-05T17:52:11Z</time>
      </trkpt>
      <trkpt lat="40.208596" lon="-8.465984">
        <ele>91.0</ele>
        <time>2019-10-05T17:52:15Z</time>
      </trkpt>
      <trkpt lat="40.208476" lon="-8.466009">
        <ele>90.0</ele>
        <time>2019-10-05T17:52:20Z</time>
      </trkpt>
      <trkpt lat="40.208414" lon="-8.466026">
        <ele>95.0</ele>
        <time>2019-10-05T17:52:24Z</time>
      </trkpt>
      <trkpt lat="40.208414" lon="-8.466026">
        <ele>93.0</ele>
        <time>2019-10-05T17:52:30Z</time>
      </trkpt>
      <trkpt lat="40.208414" lon="-8.466026">
        <ele>97.0</ele>
        <time>2019-10-05T17:52:38Z</time>
      </trkpt>
      <trkpt lat="40.208143" lon="-8.46608">
        <ele>93.0</ele>
        <time>2019-10-05T17:52:38Z</time>
      </trkpt>
      <trkpt lat="40.208057" lon="-8.466131">
        <ele>92.0</ele>
        <time>2019-10-05T17:52:42Z</time>
      </trkpt>
      <trkpt lat="40.208014" lon="-8.466156">
        <ele>94.0</ele>
        <time>2019-10-05T17:52:47Z</time>
      </trkpt>
      <trkpt lat="40.207922" lon="-8.46625">
        <ele>94.0</ele>
        <time>2019-10-05T17:52:51Z</time>
      </trkpt>
      <trkpt lat="40.207788" lon="-8.466255">
        <ele>94.0</ele>
        <time>2019-10-05T17:52:56Z</time>
      </trkpt>
      <trkpt lat="40.207788" lon="-8.466255">
        <ele>94.0</ele>
        <time>2019-10-05T17:53:03Z</time>
      </trkpt>
      <trkpt lat="40.207788" lon="-8.466255">
        <ele>93.0</ele>
        <time>2019-10-05T17:53:08Z</time>
      </trkpt>
      <trkpt lat="40.207538" lon="-8.466404">
        <ele>95.0</ele>
        <time>2019-10-05T17:53:17Z</time>
      </trkpt>
      <trkpt lat="40.207445" lon="-8.46641">
        <ele>95.0</ele>
        <time>2019-10-05T17:53:19Z</time>
      </trkpt>
      <trkpt lat="40.207397" lon="-8.466447">
        <ele>95.0</ele>
        <time>2019-10-05T17:53:22Z</time>
      </trkpt>
      <trkpt lat="40.207376" lon="-8.466462">
        <ele>95.0</ele>
        <time>2019-10-05T17:53:23Z</time>
      </trkpt>
      <trkpt lat="40.20732" lon="-8.466446">
        <ele>97.0</ele>
        <time>2019-10-05T17:53:25Z</time>
      </trkpt>
      <trkpt lat="40.207255" lon="-8.466483">
        <ele>97.0</ele>
        <time>2019-10-05T17:53:27Z</time>
      </trkpt>
      <trkpt lat="40.20723" lon="-8.466494">
        <ele>97.0</ele>
        <time>2019-10-05T17:53:28Z</time>
      </trkpt>
      <trkpt lat="40.207199" lon="-8.46651">
        <ele>98.0</ele>
        <time>2019-10-05T17:53:29Z</time>
      </trkpt>
      <trkpt lat="40.207152" lon="-8.466549">
        <ele>98.0</ele>
        <time>2019-10-05T17:53:31Z</time>
      </trkpt>
      <trkpt lat="40.207094" lon="-8.466588">
        <ele>99.0</ele>
        <time>2019-10-05T17:53:33Z</time>
      </trkpt>
      <trkpt lat="40.207044" lon="-8.466597">
        <ele>100.0</ele>
        <time>2019-10-05T17:53:36Z</time>
      </trkpt>
      <trkpt lat="40.206997" lon="-8.466654">
        <ele>102.0</ele>
        <time>2019-10-05T17:53:38Z</time>
      </trkpt>
      <trkpt lat="40.20694" lon="-8.466681">
        <ele>103.0</ele>
        <time>2019-10-05T17:53:40Z</time>
      </trkpt>
      <trkpt lat="40.206886" lon="-8.46671">
        <ele>102.0</ele>
        <time>2019-10-05T17:53:43Z</time>
      </trkpt>
      <trkpt lat="40.206838" lon="-8.46676">
        <ele>101.0</ele>
        <time>2019-10-05T17:53:45Z</time>
      </trkpt>
      <trkpt lat="40.206775" lon="-8.466777">
        <ele>101.0</ele>
        <time>2019-10-05T17:53:47Z</time>
      </trkpt>
      <trkpt lat="40.206741" lon="-8.466824">
        <ele>101.0</ele>
        <time>2019-10-05T17:53:49Z</time>
      </trkpt>
      <trkpt lat="40.206691" lon="-8.466861">
        <ele>99.0</ele>
        <time>2019-10-05T17:53:52Z</time>
      </trkpt>
      <trkpt lat="40.206652" lon="-8.466928">
        <ele>99.0</ele>
        <time>2019-10-05T17:53:55Z</time>
      </trkpt>
      <trkpt lat="40.206353" lon="-8.46715">
        <ele>100.0</ele>
        <time>2019-10-05T17:54:05Z</time>
      </trkpt>
      <trkpt lat="40.20639" lon="-8.467258">
        <ele>100.0</ele>
        <time>2019-10-05T17:54:09Z</time>
      </trkpt>
      <trkpt lat="40.206313" lon="-8.467383">
        <ele>100.0</ele>
        <time>2019-10-05T17:54:13Z</time>
      </trkpt>
      <trkpt lat="40.206296" lon="-8.467414">
        <ele>101.0</ele>
        <time>2019-10-05T17:54:14Z</time>
      </trkpt>
      <trkpt lat="40.206236" lon="-8.467458">
        <ele>99.0</ele>
        <time>2019-10-05T17:54:17Z</time>
      </trkpt>
      <trkpt lat="40.206168" lon="-8.467507">
        <ele>99.0</ele>
        <time>2019-10-05T17:54:19Z</time>
      </trkpt>
      <trkpt lat="40.20612" lon="-8.467563">
        <ele>101.0</ele>
        <time>2019-10-05T17:54:21Z</time>
      </trkpt>
      <trkpt lat="40.206093" lon="-8.467601">
        <ele>102.0</ele>
        <time>2019-10-05T17:54:23Z</time>
      </trkpt>
      <trkpt lat="40.206095" lon="-8.467668">
        <ele>102.0</ele>
        <time>2019-10-05T17:54:26Z</time>
      </trkpt>
      <trkpt lat="40.206007" lon="-8.467712">
        <ele>102.0</ele>
        <time>2019-10-05T17:54:31Z</time>
      </trkpt>
      <trkpt lat="40.205956" lon="-8.46776">
        <ele>97.0</ele>
        <time>2019-10-05T17:54:36Z</time>
      </trkpt>
      <trkpt lat="40.205912" lon="-8.467838">
        <ele>95.0</ele>
        <time>2019-10-05T17:54:40Z</time>
      </trkpt>
      <trkpt lat="40.20587" lon="-8.467866">
        <ele>96.0</ele>
        <time>2019-10-05T17:54:42Z</time>
      </trkpt>
      <trkpt lat="40.205795" lon="-8.467875">
        <ele>97.0</ele>
        <time>2019-10-05T17:54:45Z</time>
      </trkpt>
      <trkpt lat="40.205746" lon="-8.467887">
        <ele>95.0</ele>
        <time>2019-10-05T17:54:47Z</time>
      </trkpt>
      <trkpt lat="40.205746" lon="-8.467887">
        <ele>96.0</ele>
        <time>2019-10-05T17:54:55Z</time>
      </trkpt>
      <trkpt lat="40.205746" lon="-8.467887">
        <ele>96.0</ele>
        <time>2019-10-05T17:54:58Z</time>
      </trkpt>
      <trkpt lat="40.20566" lon="-8.467955">
        <ele>95.0</ele>
        <time>2019-10-05T17:54:58Z</time>
      </trkpt>
      <trkpt lat="40.205577" lon="-8.467973">
        <ele>94.0</ele>
        <time>2019-10-05T17:55:02Z</time>
      </trkpt>
      <trkpt lat="40.205544" lon="-8.467984">
        <ele>96.0</ele>
        <time>2019-10-05T17:55:04Z</time>
      </trkpt>
      <trkpt lat="40.205448" lon="-8.467982">
        <ele>104.0</ele>
        <time>2019-10-05T17:55:07Z</time>
      </trkpt>
      <trkpt lat="40.205387" lon="-8.468053">
        <ele>85.0</ele>
        <time>2019-10-05T17:55:14Z</time>
      </trkpt>
      <trkpt lat="40.205322" lon="-8.468066">
        <ele>87.0</ele>
        <time>2019-10-05T17:55:15Z</time>
      </trkpt>
      <trkpt lat="40.205288" lon="-8.468125">
        <ele>92.0</ele>
        <time>2019-10-05T17:55:18Z</time>
      </trkpt>
      <trkpt lat="40.205242" lon="-8.468178">
        <ele>107.0</ele>
        <time>2019-10-05T17:55:21Z</time>
      </trkpt>
      <trkpt lat="40.20518" lon="-8.468239">
        <ele>114.0</ele>
        <time>2019-10-05T17:55:24Z</time>
      </trkpt>
      <trkpt lat="40.205013" lon="-8.468147">
        <ele>115.0</ele>
        <time>2019-10-05T17:55:33Z</time>
      </trkpt>
      <trkpt lat="40.205013" lon="-8.468147">
        <ele>116.0</ele>
        <time>2019-10-05T17:55:41Z</time>
      </trkpt>
      <trkpt lat="40.205013" lon="-8.468147">
        <ele>115.0</ele>
        <time>2019-10-05T17:55:41Z</time>
      </trkpt>
      <trkpt lat="40.205013" lon="-8.468147">
        <ele>118.0</ele>
        <time>2019-10-05T17:55:45Z</time>
      </trkpt>
      <trkpt lat="40.204964" lon="-8.46827">
        <ele>118.0</ele>
        <time>2019-10-05T17:55:45Z</time>
      </trkpt>
      <trkpt lat="40.204927" lon="-8.468322">
        <ele>118.0</ele>
        <time>2019-10-05T17:55:49Z</time>
      </trkpt>
      <trkpt lat="40.204866" lon="-8.468311">
        <ele>118.0</ele>
        <time>2019-10-05T17:55:53Z</time>
      </trkpt>
      <trkpt lat="40.204658" lon="-8.468363">
        <ele>118.0</ele>
        <time>2019-10-05T17:56:05Z</time>
      </trkpt>
      <trkpt lat="40.203972" lon="-8.467788">
        <ele>118.0</ele>
        <time>2019-10-05T17:56:48Z</time>
      </trkpt>
      <trkpt lat="40.20392" lon="-8.467817">
        <ele>119.0</ele>
        <time>2019-10-05T17:56:50Z</time>
      </trkpt>
      <trkpt lat="40.203644" lon="-8.46782">
        <ele>119.0</ele>
        <time>2019-10-05T17:56:59Z</time>
      </trkpt>
      <trkpt lat="40.20362" lon="-8.467887">
        <ele>121.0</ele>
        <time>2019-10-05T17:57:01Z</time>
      </trkpt>
      <trkpt lat="40.203455" lon="-8.467714">
        <ele>119.0</ele>
        <time>2019-10-05T17:57:04Z</time>
      </trkpt>
      <trkpt lat="40.203455" lon="-8.467714">
        <ele>119.0</ele>
        <time>2019-10-05T17:57:09Z</time>
      </trkpt>
      <trkpt lat="40.203455" lon="-8.467714">
        <ele>113.0</ele>
        <time>2019-10-05T17:57:13Z</time>
      </trkpt>
      <trkpt lat="40.203438" lon="-8.467849">
        <ele>115.0</ele>
        <time>2019-10-05T17:57:13Z</time>
      </trkpt>
      <trkpt lat="40.203277" lon="-8.467686">
        <time>2019-10-05T17:57:20Z</time>
      </trkpt>
      <trkpt lat="40.203193" lon="-8.467645">
        <time>2019-10-05T17:57:21Z</time>
      </trkpt>
      <trkpt lat="40.203164" lon="-8.467584">
        <time>2019-10-05T17:57:23Z</time>
      </trkpt>
      <trkpt lat="40.203088" lon="-8.467565">
        <time>2019-10-05T17:57:28Z</time>
      </trkpt>
      <trkpt lat="40.20303" lon="-8.467653">
        <time>2019-10-05T17:57:30Z</time>
      </trkpt>
      <trkpt lat="40.202959" lon="-8.46763">
        <time>2019-10-05T17:57:32Z</time>
      </trkpt>
      <trkpt lat="40.202923" lon="-8.467707">
        <time>2019-10-05T17:57:35Z</time>
      </trkpt>
      <trkpt lat="40.20283" lon="-8.467736">
        <time>2019-10-05T17:57:37Z</time>
      </trkpt>
      <trkpt lat="40.202781" lon="-8.467787">
        <time>2019-10-05T17:57:40Z</time>
      </trkpt>
      <trkpt lat="40.202737" lon="-8.467753">
        <time>2019-10-05T17:57:42Z</time>
      </trkpt>
      <trkpt lat="40.202665" lon="-8.46776">
        <time>2019-10-05T17:57:45Z</time>
      </trkpt>
      <trkpt lat="40.202634" lon="-8.467706">
        <time>2019-10-05T17:57:47Z</time>
      </trkpt>
      <trkpt lat="40.202634" lon="-8.467706">
        <time>2019-10-05T17:57:52Z</time>
      </trkpt>
      <trkpt lat="40.202634" lon="-8.467706">
        <time>2019-10-05T17:57:52Z</time>
      </trkpt>
      <trkpt lat="40.202634" lon="-8.467706">
        <time>2019-10-05T17:57:57Z</time>
      </trkpt>
      <trkpt lat="40.202347" lon="-8.467678">
        <time>2019-10-05T17:58:13Z</time>
      </trkpt>
      <trkpt lat="40.202302" lon="-8.467656">
        <time>2019-10-05T17:58:14Z</time>
      </trkpt>
      <trkpt lat="40.202302" lon="-8.467656">
        <time>2019-10-05T17:58:26Z</time>
      </trkpt>
      <trkpt lat="40.202302" lon="-8.467656">
        <time>2019-10-05T17:58:50Z</time>
      </trkpt>
    </trkseg>
  </trk>
</gpx>
